createdAt,value
2018-09-14T00:00:11.048Z,40.80
2018-09-14T00:02:42.879Z,42.60
2018-09-14T00:05:14.534Z,46.20
2018-09-14T00:07:46.323Z,46.60
2018-09-14T00:10:18.145Z,43.60
2018-09-14T00:12:49.925Z,46.00
2018-09-14T00:15:21.942Z,46.60
2018-09-14T00:17:53.580Z,42.20
2018-09-14T00:20:25.280Z,49.60
2018-09-14T00:22:56.981Z,46.00
2018-09-14T00:25:28.842Z,44.60
2018-09-14T00:28:01.864Z,41.60
2018-09-14T00:30:33.811Z,43.00
2018-09-14T00:33:06.019Z,39.40
2018-09-14T00:35:37.663Z,46.40
2018-09-14T00:38:09.542Z,44.80
2018-09-14T00:40:41.464Z,45.40
2018-09-14T00:43:14.995Z,44.20
2018-09-14T00:45:46.737Z,42.40
2018-09-14T00:48:18.423Z,40.00
2018-09-14T00:50:50.264Z,42.60
2018-09-14T00:53:22.415Z,44.20
2018-09-14T00:55:54.153Z,45.60
2018-09-14T00:58:26.305Z,44.40
2018-09-14T01:00:58.129Z,49.20
2018-09-14T01:03:30.193Z,44.20
2018-09-14T01:06:01.937Z,49.20
2018-09-14T01:08:33.894Z,50.60
2018-09-14T01:11:05.741Z,51.40
2018-09-14T01:16:16.768Z,50.60
2018-09-14T01:18:48.728Z,50.80
2018-09-14T01:21:20.815Z,46.20
2018-09-14T01:23:52.496Z,51.60
2018-09-14T01:26:24.616Z,48.80
2018-09-14T01:28:56.414Z,50.80
2018-09-14T01:31:28.098Z,53.60
2018-09-14T01:34:00.011Z,48.20
2018-09-14T01:36:31.870Z,52.20
2018-09-14T01:39:03.824Z,52.80
2018-09-14T01:41:36.447Z,52.60
2018-09-14T01:44:09.271Z,51.20
2018-09-14T01:46:41.244Z,53.40
2018-09-14T01:49:12.879Z,62.00
2018-09-14T01:51:44.969Z,54.80
2018-09-14T01:54:16.885Z,54.80
2018-09-14T01:56:48.728Z,60.20
2018-09-14T01:59:20.580Z,57.20
2018-09-14T02:01:52.216Z,57.60
2018-09-14T02:04:23.860Z,56.80
2018-09-14T02:06:56.441Z,63.00
2018-09-14T02:09:28.255Z,59.20
2018-09-14T02:12:00.115Z,59.60
2018-09-14T02:14:31.768Z,57.20
2018-09-14T02:17:03.602Z,60.00
2018-09-14T02:19:36.307Z,59.00
2018-09-14T02:22:08.141Z,59.80
2018-09-14T02:24:39.785Z,58.40
2018-09-14T02:27:11.763Z,56.40
2018-09-14T02:29:43.654Z,56.60
2018-09-14T02:32:15.789Z,58.00
2018-09-14T02:34:47.168Z,58.40
2018-09-14T02:37:19.159Z,59.00
2018-09-14T02:39:50.663Z,56.80
2018-09-14T02:42:22.351Z,59.00
2018-09-14T02:44:53.794Z,57.40
2018-09-14T02:47:25.702Z,56.20
2018-09-14T02:49:57.543Z,58.40
2018-09-14T02:52:29.384Z,57.80
2018-09-14T02:55:01.638Z,58.00
2018-09-14T02:57:33.380Z,58.80
2018-09-14T03:00:05.108Z,53.40
2018-09-14T03:02:37.494Z,58.20
2018-09-14T03:05:09.526Z,54.20
2018-09-14T03:07:41.393Z,56.60
2018-09-14T03:10:12.884Z,54.40
2018-09-14T03:12:44.717Z,54.80
2018-09-14T03:15:16.097Z,53.00
2018-09-14T03:17:48.020Z,52.00
2018-09-14T03:20:19.674Z,54.80
2018-09-14T03:22:51.761Z,56.00
2018-09-14T03:25:23.454Z,55.20
2018-09-14T03:27:55.245Z,52.00
2018-09-14T03:30:26.941Z,54.20
2018-09-14T03:32:58.808Z,48.00
2018-09-14T03:35:30.455Z,49.20
2018-09-14T03:38:02.283Z,50.00
2018-09-14T03:40:33.986Z,49.20
2018-09-14T03:43:05.827Z,46.20
2018-09-14T03:45:37.869Z,51.40
2018-09-14T03:48:09.463Z,48.40
2018-09-14T03:50:41.111Z,48.00
2018-09-14T03:53:12.733Z,45.00
2018-09-14T03:55:45.091Z,46.00
2018-09-14T03:58:17.177Z,47.40
2018-09-14T04:00:48.633Z,45.40
2018-09-14T04:03:20.559Z,47.00
2018-09-14T04:05:52.626Z,39.80
2018-09-14T04:08:24.477Z,42.60
2018-09-14T04:10:56.386Z,45.80
2018-09-14T04:13:28.462Z,43.60
2018-09-14T04:16:00.439Z,45.00
2018-09-14T04:18:32.989Z,46.20
2018-09-14T04:21:04.794Z,44.80
2018-09-14T04:23:36.646Z,50.20
2018-09-14T04:26:08.383Z,44.80
2018-09-14T04:28:40.310Z,46.60
2018-09-14T04:31:11.978Z,41.60
2018-09-14T04:33:43.600Z,45.80
2018-09-14T04:36:15.215Z,37.80
2018-09-14T04:38:47.056Z,46.60
2018-09-14T04:41:18.853Z,39.80
2018-09-14T04:43:50.528Z,43.20
2018-09-14T04:46:22.300Z,43.80
2018-09-14T04:48:54.088Z,36.80
2018-09-14T04:51:25.950Z,43.60
2018-09-14T04:53:58.094Z,41.20
2018-09-14T04:56:29.733Z,35.80
2018-09-14T04:59:01.545Z,54.60
2018-09-14T05:01:33.433Z,39.00
2018-09-14T05:04:05.512Z,29.60
2018-09-14T05:06:37.292Z,39.60
2018-09-14T05:09:10.424Z,41.20
2018-09-14T05:11:42.277Z,39.60
2018-09-14T05:14:14.392Z,38.80
2018-09-14T05:16:46.384Z,45.00
2018-09-14T05:19:18.241Z,40.40
2018-09-14T05:21:50.281Z,40.60
2018-09-14T05:24:22.374Z,38.60
2018-09-14T05:26:54.030Z,37.40
2018-09-14T05:29:26.141Z,35.60
2018-09-14T05:31:58.137Z,46.80
2018-09-14T05:34:29.987Z,42.60
2018-09-14T05:37:01.687Z,44.60
2018-09-14T05:39:33.502Z,44.00
2018-09-14T05:42:05.158Z,38.40
2018-09-14T05:44:36.976Z,42.80
2018-09-14T05:47:10.491Z,43.60
2018-09-14T05:49:42.425Z,43.20
2018-09-14T05:52:14.359Z,50.20
2018-09-14T05:54:46.139Z,40.20
2018-09-14T05:57:18.471Z,46.20
2018-09-14T05:59:50.274Z,40.40
2018-09-14T06:02:22.111Z,47.40
2018-09-14T06:04:53.736Z,48.80
2018-09-14T06:07:25.444Z,48.60
2018-09-14T06:09:57.221Z,48.00
2018-09-14T06:12:28.979Z,44.40
2018-09-14T06:15:00.912Z,47.60
2018-09-14T06:17:32.651Z,46.20
2018-09-14T06:20:04.636Z,47.60
2018-09-14T06:22:36.471Z,49.20
2018-09-14T06:25:09.225Z,47.20
2018-09-14T06:27:40.711Z,47.60
2018-09-14T06:30:12.644Z,44.80
2018-09-14T06:32:44.369Z,36.60
2018-09-14T06:35:16.317Z,46.00
2018-09-14T06:37:48.150Z,41.60
2018-09-14T06:40:19.933Z,49.40
2018-09-14T06:42:51.721Z,48.80
2018-09-14T06:45:23.304Z,46.40
2018-09-14T06:47:54.918Z,39.40
2018-09-14T06:50:26.691Z,41.40
2018-09-14T06:52:58.477Z,40.80
2018-09-14T06:55:30.285Z,40.00
2018-09-14T06:58:02.020Z,42.40
2018-09-14T07:00:33.744Z,39.20
2018-09-14T07:03:05.559Z,41.20
2018-09-14T07:05:37.395Z,33.80
2018-09-14T07:08:08.949Z,39.00
2018-09-14T07:10:40.999Z,36.00
2018-09-14T07:13:12.718Z,35.40
2018-09-14T07:15:44.770Z,35.40
2018-09-14T07:18:16.521Z,31.80
2018-09-14T07:20:48.397Z,38.00
2018-09-14T07:23:20.116Z,34.80
2018-09-14T07:25:52.758Z,36.00
2018-09-14T07:28:24.550Z,37.20
2018-09-14T07:30:56.472Z,38.80
2018-09-14T07:33:28.044Z,39.20
2018-09-14T07:35:59.877Z,39.80
2018-09-14T07:38:31.422Z,36.00
2018-09-14T07:41:03.315Z,35.40
2018-09-14T07:43:35.080Z,33.00
2018-09-14T07:46:06.970Z,36.60
2018-09-14T07:48:38.638Z,33.60
2018-09-14T07:51:10.549Z,35.00
2018-09-14T07:53:42.276Z,34.80
2018-09-14T07:56:14.095Z,31.60
2018-09-14T07:58:45.831Z,32.40
2018-09-14T08:01:17.743Z,36.20
2018-09-14T08:03:49.634Z,35.80
2018-09-14T08:06:21.435Z,31.60
2018-09-14T08:08:53.332Z,33.40
2018-09-14T08:11:25.324Z,35.60
2018-09-14T08:13:57.013Z,35.60
2018-09-14T08:16:28.795Z,36.40
2018-09-14T08:19:00.430Z,40.60
2018-09-14T08:21:32.414Z,39.20
2018-09-14T08:24:04.217Z,42.20
2018-09-14T08:26:37.520Z,42.60
2018-09-14T08:29:09.280Z,45.20
2018-09-14T08:31:41.038Z,40.20
2018-09-14T08:34:12.904Z,41.40
2018-09-14T08:36:44.994Z,41.60
2018-09-14T08:39:16.854Z,44.40
2018-09-14T08:41:48.686Z,40.80
2018-09-14T08:44:20.560Z,34.40
2018-09-14T08:46:52.221Z,38.60
2018-09-14T08:49:24.135Z,39.60
2018-09-14T08:51:56.124Z,36.80
2018-09-14T08:54:28.004Z,39.20
2018-09-14T08:56:59.774Z,43.40
2018-09-14T08:59:31.474Z,40.80
2018-09-14T09:02:03.473Z,38.80
2018-09-14T09:04:35.263Z,39.20
2018-09-14T09:07:07.122Z,42.80
2018-09-14T09:09:39.245Z,41.20
2018-09-14T09:12:11.286Z,41.20
2018-09-14T09:14:43.119Z,43.00
2018-09-14T09:17:15.022Z,43.60
2018-09-14T09:19:46.804Z,46.20
2018-09-14T09:22:18.521Z,41.40
2018-09-14T09:24:50.409Z,45.60
2018-09-14T09:27:22.419Z,46.40
2018-09-14T09:29:54.195Z,43.20
2018-09-14T09:32:26.125Z,45.60
2018-09-14T09:34:57.729Z,49.40
2018-09-14T09:37:29.692Z,45.20
2018-09-14T09:40:01.449Z,34.60
2018-09-14T09:42:34.089Z,46.40
2018-09-14T09:45:05.849Z,44.60
2018-09-14T09:47:37.822Z,44.00
2018-09-14T09:50:09.568Z,41.00
2018-09-14T09:52:42.643Z,41.80
2018-09-14T09:55:14.464Z,46.40
2018-09-14T09:57:46.349Z,44.20
2018-09-14T10:00:22.705Z,44.60
2018-09-14T10:04:01.553Z,46.40
2018-09-14T10:06:33.359Z,46.60
2018-09-14T10:12:13.168Z,39.40
2018-09-14T10:14:44.961Z,42.00
2018-09-14T10:17:16.809Z,43.00
2018-09-14T10:19:48.827Z,33.60
2018-09-14T10:22:20.741Z,43.20
2018-09-14T10:24:52.838Z,40.20
2018-09-14T10:27:24.607Z,43.40
2018-09-14T10:29:56.426Z,39.40
2018-09-14T10:32:28.600Z,34.40
2018-09-14T10:35:00.542Z,31.60
2018-09-14T10:37:32.819Z,37.00
2018-09-14T10:40:04.907Z,34.60
2018-09-14T10:42:36.910Z,39.60
2018-09-14T10:45:08.470Z,35.20
2018-09-14T10:47:40.269Z,36.60
2018-09-14T10:50:12.055Z,33.40
2018-09-14T10:52:44.278Z,36.40
2018-09-14T10:55:16.013Z,42.40
2018-09-14T10:57:47.864Z,34.00
2018-09-14T11:00:19.868Z,35.80
2018-09-14T11:02:51.755Z,38.00
2018-09-14T11:05:23.628Z,35.40
2018-09-14T11:07:55.702Z,36.00
2018-09-14T11:10:27.452Z,35.60
2018-09-14T11:12:59.426Z,34.20
2018-09-14T11:15:32.391Z,36.40
2018-09-14T11:18:04.107Z,34.60
2018-09-14T11:20:35.928Z,35.20
2018-09-14T11:23:07.793Z,34.40
2018-09-14T11:25:39.715Z,34.00
2018-09-14T11:28:11.753Z,32.00
2018-09-14T11:30:43.618Z,36.40
2018-09-14T11:33:15.507Z,26.60
2018-09-14T11:35:47.237Z,32.00
2018-09-14T11:38:19.235Z,26.40
2018-09-14T11:40:51.097Z,26.40
2018-09-14T11:43:23.083Z,30.60
2018-09-14T11:45:55.996Z,29.00
2018-09-14T11:48:27.977Z,29.20
2018-09-14T11:51:00.084Z,27.20
2018-09-14T11:53:33.227Z,33.00
2018-09-14T11:56:05.120Z,29.00
2018-09-14T11:58:38.356Z,30.80
2018-09-14T12:01:10.201Z,31.20
2018-09-14T12:03:43.340Z,28.20
2018-09-14T12:06:15.931Z,26.80
2018-09-14T12:08:48.101Z,30.20
2018-09-14T12:11:19.920Z,31.60
2018-09-14T12:13:51.913Z,27.40
2018-09-14T12:16:24.536Z,31.00
2018-09-14T12:18:57.687Z,34.80
2018-09-14T12:21:29.613Z,31.00
2018-09-14T12:24:01.475Z,34.40
2018-09-14T12:26:33.426Z,33.20
2018-09-14T12:29:05.370Z,29.60
2018-09-14T12:31:37.392Z,27.60
2018-09-14T12:34:09.517Z,31.40
2018-09-14T12:36:41.218Z,31.20
2018-09-14T12:39:13.699Z,28.60
2018-09-14T12:41:45.286Z,30.40
2018-09-14T12:44:17.594Z,30.00
2018-09-14T12:46:49.640Z,29.20
2018-09-14T12:49:21.435Z,29.60
2018-09-14T12:51:53.156Z,33.60
2018-09-14T12:54:25.430Z,31.60
2018-09-14T12:56:58.592Z,31.40
2018-09-14T12:59:30.493Z,31.00
2018-09-14T13:02:02.285Z,31.60
2018-09-14T13:04:34.588Z,33.80
2018-09-14T13:07:06.369Z,31.40
2018-09-14T13:09:38.724Z,27.80
2018-09-14T13:12:11.162Z,33.80
2018-09-14T13:14:43.682Z,27.00
2018-09-14T13:17:15.498Z,35.40
2018-09-14T13:19:47.791Z,27.80
2018-09-14T13:22:19.361Z,31.20
2018-09-14T13:24:51.308Z,34.40
2018-09-14T13:27:23.101Z,30.00
2018-09-14T13:29:54.918Z,34.00
2018-09-14T13:32:26.896Z,38.60
2018-09-14T13:34:58.911Z,34.40
2018-09-14T13:37:31.011Z,40.20
2018-09-14T13:40:03.716Z,36.20
2018-09-14T13:42:35.449Z,38.00
2018-09-14T13:45:07.273Z,43.60
2018-09-14T13:47:38.971Z,11.40
2018-09-14T13:50:11.179Z,25.20
2018-09-14T13:52:43.250Z,31.20
2018-09-14T13:55:15.560Z,33.20
2018-09-14T13:57:47.453Z,37.80
2018-09-14T14:00:19.427Z,39.60
2018-09-14T14:02:51.209Z,47.00
2018-09-14T14:05:23.060Z,38.20
2018-09-14T14:07:54.905Z,37.00
2018-09-14T14:10:27.153Z,47.20
2018-09-14T14:12:58.978Z,46.20
2018-09-14T14:15:32.038Z,47.40
2018-09-14T14:18:03.797Z,47.00
2018-09-14T14:20:35.523Z,48.00
2018-09-14T14:23:07.337Z,49.40
2018-09-14T14:25:39.334Z,52.60
2018-09-14T14:28:11.154Z,49.00
2018-09-14T14:30:42.994Z,49.80
2018-09-14T14:33:14.667Z,50.80
2018-09-14T14:35:46.892Z,50.20
2018-09-14T14:38:18.574Z,50.20
2018-09-14T14:40:50.640Z,50.00
2018-09-14T14:43:22.071Z,47.60
2018-09-14T14:45:53.997Z,46.40
2018-09-14T14:48:26.105Z,44.60
2018-09-14T14:50:57.864Z,44.00
2018-09-14T14:53:29.520Z,46.00
2018-09-14T14:56:01.450Z,47.60
2018-09-14T14:58:33.275Z,38.80
2018-09-14T15:01:05.980Z,51.00
2018-09-14T15:03:37.848Z,46.60
2018-09-14T15:06:09.684Z,43.80
2018-09-14T15:08:41.293Z,47.00
2018-09-14T15:11:13.201Z,49.40
2018-09-14T15:13:45.145Z,48.80
2018-09-14T15:16:17.257Z,49.00
2018-09-14T15:18:49.008Z,49.00
2018-09-14T15:21:20.595Z,48.20
2018-09-14T15:23:52.522Z,52.60
2018-09-14T15:26:24.538Z,52.40
2018-09-14T15:28:56.716Z,49.00
2018-09-14T15:31:28.606Z,50.40
2018-09-14T15:34:00.445Z,52.40
2018-09-14T15:36:32.298Z,47.80
2018-09-14T15:39:04.471Z,47.00
2018-09-14T15:41:36.471Z,47.80
2018-09-14T15:44:08.300Z,48.20
2018-09-14T15:46:40.207Z,49.60
2018-09-14T15:49:11.939Z,46.60
2018-09-14T15:51:43.709Z,49.00
2018-09-14T15:54:15.461Z,47.80
2018-09-14T15:56:47.408Z,50.40
2018-09-14T15:59:19.311Z,47.80
2018-09-14T16:01:51.309Z,53.40
2018-09-14T16:04:23.213Z,50.60
2018-09-14T16:06:54.966Z,50.20
2018-09-14T16:09:26.685Z,54.80
2018-09-14T16:11:58.563Z,53.60
2018-09-14T16:14:30.354Z,55.20
2018-09-14T16:17:02.285Z,51.60
2018-09-14T16:19:34.123Z,49.40
2018-09-14T16:22:06.006Z,51.60
2018-09-14T16:24:37.626Z,51.20
2018-09-14T16:27:09.527Z,49.00
2018-09-14T16:29:41.422Z,49.00
2018-09-14T16:32:13.237Z,49.20
2018-09-14T16:34:45.033Z,48.80
2018-09-14T16:37:16.917Z,49.20
2018-09-14T16:39:48.935Z,49.20
2018-09-14T16:42:20.834Z,47.00
2018-09-14T16:44:52.565Z,49.60
2018-09-14T16:47:24.342Z,43.60
2018-09-14T16:49:55.990Z,45.40
2018-09-14T16:52:27.807Z,49.20
2018-09-14T16:55:00.462Z,47.20
2018-09-14T16:57:32.384Z,40.40
2018-09-14T17:00:03.937Z,43.00
2018-09-14T17:02:36.062Z,39.00
2018-09-14T17:05:08.046Z,45.00
2018-09-14T17:07:39.958Z,35.60
2018-09-14T17:10:11.769Z,43.80
2018-09-14T17:12:43.651Z,42.00
2018-09-14T17:15:15.405Z,42.20
2018-09-14T17:17:47.266Z,36.60
2018-09-14T17:20:19.369Z,34.40
2018-09-14T17:22:51.562Z,39.00
2018-09-14T17:25:23.398Z,35.80
2018-09-14T17:27:55.953Z,42.20
2018-09-14T17:30:27.542Z,42.60
2018-09-14T17:32:59.348Z,33.80
2018-09-14T17:35:31.018Z,37.20
2018-09-14T17:38:03.006Z,40.20
2018-09-14T17:40:34.713Z,33.00
2018-09-14T17:43:06.730Z,40.40
2018-09-14T17:45:38.696Z,31.80
2018-09-14T17:48:11.584Z,37.40
2018-09-14T17:50:43.390Z,31.80
2018-09-14T17:53:15.528Z,33.60
2018-09-14T17:55:47.372Z,36.20
2018-09-14T17:58:19.229Z,35.60
2018-09-14T18:00:51.147Z,35.20
2018-09-14T18:03:22.715Z,37.40
2018-09-14T18:05:54.500Z,36.60
2018-09-14T18:08:26.374Z,41.00
2018-09-14T18:10:58.249Z,38.40
2018-09-14T18:13:29.989Z,38.00
2018-09-14T18:16:01.764Z,37.40
2018-09-14T18:18:33.692Z,34.40
2018-09-14T18:21:05.503Z,37.20
2018-09-14T18:23:37.747Z,38.00
2018-09-14T18:26:09.611Z,34.60
2018-09-14T18:28:41.813Z,37.20
2018-09-14T18:31:13.521Z,36.60
2018-09-14T18:33:45.390Z,33.60
2018-09-14T18:36:17.365Z,18.20
2018-09-14T18:38:49.024Z,22.20
2018-09-14T18:41:20.735Z,25.60
2018-09-14T18:43:52.678Z,22.80
2018-09-14T18:46:24.537Z,33.00
2018-09-14T18:48:56.357Z,30.60
2018-09-14T18:51:28.094Z,31.00
2018-09-14T18:53:59.998Z,29.60
2018-09-14T18:56:31.851Z,31.60
2018-09-14T18:59:03.941Z,33.00
2018-09-14T19:01:35.493Z,30.60
2018-09-14T19:04:07.020Z,31.20
2018-09-14T19:06:38.767Z,31.00
2018-09-14T19:09:12.572Z,33.00
2018-09-14T19:11:44.253Z,35.40
2018-09-14T19:14:16.059Z,32.00
2018-09-14T19:16:47.836Z,35.40
2018-09-14T19:19:19.729Z,31.60
2018-09-14T19:21:51.492Z,35.60
2018-09-14T19:24:23.320Z,30.20
2018-09-14T19:26:54.972Z,36.00
2018-09-14T19:29:27.229Z,33.60
2018-09-14T19:31:58.975Z,30.80
2018-09-14T19:34:31.024Z,34.00
2018-09-14T19:37:02.868Z,31.00
2018-09-14T19:39:34.713Z,35.00
2018-09-14T19:42:06.428Z,32.20
2018-09-14T19:44:38.441Z,33.40
2018-09-14T19:47:10.290Z,27.80
2018-09-14T19:49:43.178Z,31.20
2018-09-14T19:52:14.898Z,28.00
2018-09-14T19:54:46.961Z,29.60
2018-09-14T19:57:18.859Z,28.00
2018-09-14T19:59:50.703Z,35.20
2018-09-14T20:02:22.424Z,34.00
2018-09-14T20:04:54.251Z,28.00
2018-09-14T20:07:25.959Z,34.80
2018-09-14T20:12:27.958Z,29.80
2018-09-14T20:14:59.511Z,36.00
2018-09-14T20:17:31.355Z,35.20
2018-09-14T20:20:03.310Z,33.80
2018-09-14T20:22:35.481Z,25.60
2018-09-14T20:25:07.176Z,33.60
2018-09-14T20:27:39.188Z,27.80
2018-09-14T20:30:11.498Z,33.80
2018-09-14T20:32:43.115Z,32.80
2018-09-14T20:35:14.920Z,29.80
2018-09-14T20:37:47.100Z,29.40
2018-09-14T20:40:18.701Z,32.80
2018-09-14T20:42:50.602Z,32.00
2018-09-14T20:45:22.373Z,31.60
2018-09-14T20:47:54.248Z,33.00
2018-09-14T20:50:26.337Z,30.60
2018-09-14T20:52:58.015Z,33.00
2018-09-14T20:55:30.250Z,33.00
2018-09-14T20:58:01.974Z,31.00
2018-09-14T21:00:33.723Z,33.00
2018-09-14T21:03:05.948Z,30.60
2018-09-14T21:05:37.897Z,33.20
2018-09-14T21:08:09.759Z,26.40
2018-09-14T21:10:41.583Z,34.20
2018-09-14T21:13:13.530Z,31.40
2018-09-14T21:15:45.457Z,30.00
2018-09-14T21:18:17.441Z,31.60
2018-09-14T21:20:49.107Z,31.80
2018-09-14T21:23:21.080Z,28.80
2018-09-14T21:25:52.884Z,31.00
2018-09-14T21:28:24.727Z,27.20
2018-09-14T21:30:57.050Z,29.20
2018-09-14T21:33:28.884Z,28.60
2018-09-14T21:36:00.731Z,29.20
2018-09-14T21:38:32.613Z,31.20
2018-09-14T21:41:04.531Z,30.40
2018-09-14T21:43:36.474Z,31.60
2018-09-14T21:46:08.266Z,29.80
2018-09-14T21:48:40.049Z,35.60
2018-09-14T21:51:11.766Z,28.80
2018-09-14T21:53:44.034Z,37.00
2018-09-14T21:56:15.840Z,32.20
2018-09-14T21:58:47.660Z,36.20
2018-09-14T22:01:35.344Z,36.40
2018-09-14T22:04:07.208Z,29.80
2018-09-14T22:06:39.053Z,33.00
2018-09-14T22:09:11.884Z,30.60
2018-09-14T22:11:44.181Z,33.20
2018-09-14T22:14:16.183Z,33.60
2018-09-14T22:16:47.682Z,32.20
2018-09-14T22:19:20.575Z,35.60
2018-09-14T22:21:52.253Z,33.60
2018-09-14T22:24:23.952Z,32.20
2018-09-14T22:26:55.634Z,35.00
2018-09-14T22:29:27.549Z,29.00
2018-09-14T22:31:59.263Z,35.20
2018-09-14T22:34:31.038Z,30.00
2018-09-14T22:37:02.529Z,35.00
2018-09-14T22:39:34.324Z,35.00
2018-09-14T22:42:05.797Z,32.20
2018-09-14T22:44:37.740Z,32.20
2018-09-14T22:47:09.586Z,33.00
2018-09-14T22:49:41.588Z,32.40
2018-09-14T22:52:13.166Z,39.40
2018-09-14T22:54:45.066Z,30.80
2018-09-14T22:57:17.246Z,36.40
2018-09-14T22:59:49.042Z,34.60
2018-09-14T23:02:20.666Z,34.00
2018-09-14T23:04:52.617Z,35.00
2018-09-14T23:07:24.735Z,37.40
2018-09-14T23:09:56.550Z,28.80
2018-09-14T23:12:28.306Z,35.60
2018-09-14T23:15:00.043Z,39.20
2018-09-14T23:17:31.898Z,33.60
2018-09-14T23:20:04.000Z,38.00
2018-09-14T23:22:35.804Z,38.20
2018-09-14T23:25:07.707Z,41.00
2018-09-14T23:27:39.470Z,38.20
2018-09-14T23:30:11.465Z,32.80
2018-09-14T23:32:43.273Z,38.60
2018-09-14T23:35:14.891Z,43.40
2018-09-14T23:37:46.701Z,37.80
2018-09-14T23:40:18.874Z,37.40
2018-09-14T23:42:51.500Z,40.20
2018-09-14T23:45:24.085Z,36.80
2018-09-14T23:47:55.825Z,39.80
2018-09-14T23:50:28.371Z,37.20
2018-09-14T23:53:00.133Z,42.40
2018-09-14T23:55:32.261Z,37.60
2018-09-14T23:58:04.036Z,38.00
